Flight Track Log - Related Links

Times and Time Zones

All times are in EST time to prevent confusion due to time zone crossing. See the AMF9315 flight status page for this flight to view local times or setup timezone preferences in your user account.

Time Position Orientation Groundspeed Altitude Reporting Facility
EST Latitude Longitude Course Direction KTS MPH feet Rate Location/Type
Tue 07:31:38 AM 34.7217 -86.7483 26° Northeast 167 192 6,800  Level Memphis Center
Tue 07:32:38 AM 34.7706 -86.7322 15° North 179 206 9,600 2,083 Climbing Memphis Center
Tue 07:33:39 AM 34.8250 -86.7119 17° North 199 229 11,000 689 Climbing Memphis Center
Tue 07:34:40 AM 34.8925 -86.6867 17° North 240 276 11,000  Level Memphis Center
Tue 07:35:40 AM 34.9631 -86.6711 10° North 254 292 11,000  Level Memphis Center
Tue 07:36:00 AM 34.9905 -86.7102 14° North  Level Estimated
Tue 07:36:41 AM 35.0325 -86.6619 North 252 290 11,000  Level Memphis Center
Tue 07:37:00 AM 35.0441 -86.6785 26° Northeast  Level FlightAware Approximate
Tue 07:37:42 AM 35.1069 -86.6528 North 248 285 11,000  Level Memphis Center
Tue 07:38:43 AM 35.1767 -86.6414 North 250 288 11,000  Level Memphis Center
Tue 07:39:43 AM 35.2444 -86.6317 North 245 282 11,000  Level Memphis Center
Tue 07:40:44 AM 35.3128 -86.6222 North 245 282 11,000  Level Memphis Center
Tue 07:41:45 AM 35.3811 -86.6125 North 244 281 11,000  Level Memphis Center
Tue 07:42:45 AM 35.4500 -86.6022 North 246 283 11,000 -198 Level Memphis Center
Tue 07:43:46 AM 35.5181 -86.5933 North 245 282 10,600 -885 Descending Memphis Center
Tue 07:44:47 AM 35.5914 -86.5806 North 258 297 9,200 -1,279 Descending Memphis Center
Tue 07:45:48 AM 35.6639 -86.5692 North 260 299 8,000 -1,140 Descending Memphis Center
Tue 07:46:48 AM 35.7344 -86.5586 North 256 295 6,900 -1,388 Descending Memphis Center
Tue 07:47:49 AM 35.8047 -86.5486 North 254 292 5,200 -1,574 Descending Memphis Center
Tue 07:48:50 AM 35.8708 -86.5200 19° North 247 284 3,700 -1,230 Descending Memphis Center
Tue 07:49:51 AM 35.9367 -86.4981 15° North 244 281 2,700 -793 Descending Memphis Center
Tue 07:50:51 AM 36.0000 -86.4897 North 233 268 2,100 -446 Descending Memphis Center
Tue 07:51:52 AM 36.0467 -86.4814 North 185 213 1,800 -443 Descending Memphis Center
Tue 07:52:53 AM 36.0403 -86.5186 258° West 142 163 1,200 -545 Descending Memphis Center
Tue 07:53:53 AM 36.0033 -86.5206 182° South 134 154 700 -500 Descending Memphis Center

Login

Don't have an account? Register now (free) for customized features, flight alerts, and more!